Página principal
METAR-TAF:

METAR-TAF

Aeroportos :

Aeroporto Internacional de Sunan

Pyongyang, Coreia do Norte

latitude: 39-02N, longitude: 125-47E, altura: 36 m

METAR: em falta

Hora: 22:53 (14:23 UTC)

Previsão

O boletim foi feito há 16 horas e 53 minutos, às 21:30 UTC
Previsão válida de 18 às 00 UTC a 18 às 24 UTC
Vento 8 kt de su-sudoeste
Visibilidade 10 km ou mais
sem nuvens abaixo de 1500 metros e sem cumulonimbus
Tornando-se
de 18 às 03 UTC a 18 às 05 UTC
Vento 10 kt de oeste
Nuvens fragmentadasa uma altura de 2700 ft

TAF: ZKPY 172130Z 1800/1824 21004MPS CAVOK BECMG 1803/1805 27005MPS BKN027 TX31/1806Z TN22/1821Z

Observações e previsões do tempo de mais de 4000 aeroportos (mensagens METAR e TAF).

As estações disponíveis são os pontos amarelos e vermelhos sobre o mapa.

Mova o rato sobre o mapa para ver o nome da estação.

Depois clique no ponto para visualizar as observações e previsões meteorológicas.

Para alterar o mapa : clique nos botões verdes com uma cruz preta para aumentar o zoom; no botão verde com uma pitada de zoom; ou nas setas verdes para mapas adjacentes.


METAR-TAF: